sensor_id;sensor_type;location;lat;lon;timestamp;P1;durP1;ratioP1;P2;durP2;ratioP2
735;SDS011;352;48.626;9.238;2022-07-22T00:02:21;9.40;;;7.37;;
735;SDS011;352;48.626;9.238;2022-07-22T00:04:48;7.70;;;6.97;;
735;SDS011;352;48.626;9.238;2022-07-22T00:07:15;8.50;;;7.80;;
735;SDS011;352;48.626;9.238;2022-07-22T00:09:42;7.87;;;7.07;;
735;SDS011;352;48.626;9.238;2022-07-22T00:12:10;8.40;;;7.80;;
735;SDS011;352;48.626;9.238;2022-07-22T00:14:37;7.80;;;7.03;;
735;SDS011;352;48.626;9.238;2022-07-22T00:17:04;8.33;;;7.63;;
735;SDS011;352;48.626;9.238;2022-07-22T00:19:35;7.70;;;7.10;;
735;SDS011;352;48.626;9.238;2022-07-22T00:22:06;8.30;;;7.67;;
735;SDS011;352;48.626;9.238;2022-07-22T00:24:34;8.20;;;7.50;;
735;SDS011;352;48.626;9.238;2022-07-22T00:27:01;9.30;;;8.40;;
735;SDS011;352;48.626;9.238;2022-07-22T00:29:29;9.03;;;8.23;;
735;SDS011;352;48.626;9.238;2022-07-22T00:31:59;7.60;;;7.00;;
735;SDS011;352;48.626;9.238;2022-07-22T00:34:26;8.20;;;7.50;;
735;SDS011;352;48.626;9.238;2022-07-22T00:36:54;8.27;;;7.50;;
735;SDS011;352;48.626;9.238;2022-07-22T00:39:21;8.10;;;7.40;;
735;SDS011;352;48.626;9.238;2022-07-22T00:41:48;8.60;;;7.80;;
735;SDS011;352;48.626;9.238;2022-07-22T00:44:15;8.30;;;7.60;;
735;SDS011;352;48.626;9.238;2022-07-22T00:46:42;8.87;;;8.17;;
735;SDS011;352;48.626;9.238;2022-07-22T00:49:09;8.37;;;7.67;;
735;SDS011;352;48.626;9.238;2022-07-22T00:51:37;8.20;;;7.50;;
735;SDS011;352;48.626;9.238;2022-07-22T00:54:06;9.50;;;7.30;;
735;SDS011;352;48.626;9.238;2022-07-22T00:56:33;7.57;;;6.97;;
735;SDS011;352;48.626;9.238;2022-07-22T00:59:02;7.83;;;7.20;;
735;SDS011;352;48.626;9.238;2022-07-22T01:01:31;7.30;;;6.70;;
735;SDS011;352;48.626;9.238;2022-07-22T01:03:58;7.70;;;7.00;;
735;SDS011;352;48.626;9.238;2022-07-22T01:06:25;8.47;;;7.67;;
735;SDS011;352;48.626;9.238;2022-07-22T01:08:52;8.57;;;7.57;;
735;SDS011;352;48.626;9.238;2022-07-22T01:11:21;8.17;;;7.23;;
735;SDS011;352;48.626;9.238;2022-07-22T01:13:49;7.60;;;7.10;;
735;SDS011;352;48.626;9.238;2022-07-22T01:16:17;8.67;;;7.77;;
735;SDS011;352;48.626;9.238;2022-07-22T01:18:45;8.00;;;7.07;;
735;SDS011;352;48.626;9.238;2022-07-22T01:21:14;7.63;;;7.00;;
735;SDS011;352;48.626;9.238;2022-07-22T01:23:42;8.33;;;7.63;;
735;SDS011;352;48.626;9.238;2022-07-22T01:26:09;8.40;;;7.60;;
735;SDS011;352;48.626;9.238;2022-07-22T01:28:37;6.93;;;6.43;;
735;SDS011;352;48.626;9.238;2022-07-22T01:31:04;8.53;;;7.80;;
735;SDS011;352;48.626;9.238;2022-07-22T01:33:31;10.43;;;7.40;;
735;SDS011;352;48.626;9.238;2022-07-22T01:35:58;9.10;;;8.20;;
735;SDS011;352;48.626;9.238;2022-07-22T01:38:26;8.40;;;7.60;;
735;SDS011;352;48.626;9.238;2022-07-22T01:40:53;8.30;;;7.50;;
735;SDS011;352;48.626;9.238;2022-07-22T01:43:20;8.30;;;7.50;;
735;SDS011;352;48.626;9.238;2022-07-22T01:45:49;8.47;;;7.67;;
735;SDS011;352;48.626;9.238;2022-07-22T01:48:17;9.73;;;8.83;;
735;SDS011;352;48.626;9.238;2022-07-22T01:50:44;8.60;;;7.80;;
735;SDS011;352;48.626;9.238;2022-07-22T01:53:11;7.33;;;6.73;;
735;SDS011;352;48.626;9.238;2022-07-22T01:55:40;8.00;;;7.40;;
735;SDS011;352;48.626;9.238;2022-07-22T01:58:06;7.90;;;7.10;;
735;SDS011;352;48.626;9.238;2022-07-22T02:00:34;8.00;;;7.30;;
735;SDS011;352;48.626;9.238;2022-07-22T02:03:01;8.33;;;7.63;;
735;SDS011;352;48.626;9.238;2022-07-22T02:05:28;8.30;;;7.20;;
735;SDS011;352;48.626;9.238;2022-07-22T02:07:58;8.63;;;7.70;;
735;SDS011;352;48.626;9.238;2022-07-22T02:10:26;9.27;;;8.33;;
735;SDS011;352;48.626;9.238;2022-07-22T02:12:54;8.33;;;7.70;;
735;SDS011;352;48.626;9.238;2022-07-22T02:15:21;10.50;;;7.50;;
735;SDS011;352;48.626;9.238;2022-07-22T02:17:48;11.10;;;7.63;;
735;SDS011;352;48.626;9.238;2022-07-22T02:20:15;8.53;;;7.77;;
735;SDS011;352;48.626;9.238;2022-07-22T02:22:42;7.93;;;7.27;;
735;SDS011;352;48.626;9.238;2022-07-22T02:25:11;9.30;;;8.40;;
735;SDS011;352;48.626;9.238;2022-07-22T02:27:38;8.37;;;7.47;;
735;SDS011;352;48.626;9.238;2022-07-22T02:30:08;9.37;;;8.50;;
735;SDS011;352;48.626;9.238;2022-07-22T02:32:35;7.67;;;7.07;;
735;SDS011;352;48.626;9.238;2022-07-22T02:35:02;9.20;;;8.33;;
735;SDS011;352;48.626;9.238;2022-07-22T02:37:29;8.73;;;8.00;;
735;SDS011;352;48.626;9.238;2022-07-22T02:39:56;8.57;;;7.73;;
735;SDS011;352;48.626;9.238;2022-07-22T02:42:23;9.80;;;7.80;;
735;SDS011;352;48.626;9.238;2022-07-22T02:44:50;8.53;;;7.83;;
735;SDS011;352;48.626;9.238;2022-07-22T02:47:19;8.40;;;7.50;;
735;SDS011;352;48.626;9.238;2022-07-22T02:49:45;8.40;;;7.70;;
735;SDS011;352;48.626;9.238;2022-07-22T02:52:12;8.77;;;7.63;;
735;SDS011;352;48.626;9.238;2022-07-22T02:54:41;9.13;;;8.23;;
735;SDS011;352;48.626;9.238;2022-07-22T02:57:08;9.33;;;7.80;;
735;SDS011;352;48.626;9.238;2022-07-22T02:59:35;8.50;;;7.80;;
735;SDS011;352;48.626;9.238;2022-07-22T03:02:02;9.33;;;8.53;;
735;SDS011;352;48.626;9.238;2022-07-22T03:04:30;10.63;;;8.47;;
735;SDS011;352;48.626;9.238;2022-07-22T03:06:57;8.90;;;8.10;;
735;SDS011;352;48.626;9.238;2022-07-22T03:09:24;8.93;;;7.60;;
735;SDS011;352;48.626;9.238;2022-07-22T03:11:51;9.27;;;8.40;;
735;SDS011;352;48.626;9.238;2022-07-22T03:14:18;8.30;;;7.60;;
735;SDS011;352;48.626;9.238;2022-07-22T03:16:47;8.17;;;7.50;;
735;SDS011;352;48.626;9.238;2022-07-22T03:19:14;8.27;;;7.60;;
735;SDS011;352;48.626;9.238;2022-07-22T03:21:42;19.27;;;17.90;;
735;SDS011;352;48.626;9.238;2022-07-22T03:24:08;12.03;;;10.83;;
735;SDS011;352;48.626;9.238;2022-07-22T03:26:35;11.60;;;10.40;;
735;SDS011;352;48.626;9.238;2022-07-22T03:29:02;17.00;;;15.53;;
735;SDS011;352;48.626;9.238;2022-07-22T03:31:29;16.60;;;15.13;;
735;SDS011;352;48.626;9.238;2022-07-22T03:33:56;17.53;;;15.83;;
735;SDS011;352;48.626;9.238;2022-07-22T03:36:24;11.20;;;10.30;;
735;SDS011;352;48.626;9.238;2022-07-22T03:38:52;9.63;;;8.80;;
735;SDS011;352;48.626;9.238;2022-07-22T03:41:18;14.23;;;13.00;;
735;SDS011;352;48.626;9.238;2022-07-22T03:43:45;11.27;;;9.50;;
735;SDS011;352;48.626;9.238;2022-07-22T03:46:12;10.77;;;9.73;;
735;SDS011;352;48.626;9.238;2022-07-22T03:48:39;9.43;;;8.63;;
735;SDS011;352;48.626;9.238;2022-07-22T03:51:06;11.73;;;10.63;;
735;SDS011;352;48.626;9.238;2022-07-22T03:53:33;8.70;;;8.00;;
735;SDS011;352;48.626;9.238;2022-07-22T03:56:02;10.63;;;9.53;;
735;SDS011;352;48.626;9.238;2022-07-22T03:58:29;9.67;;;8.87;;
735;SDS011;352;48.626;9.238;2022-07-22T04:00:57;8.37;;;7.57;;
735;SDS011;352;48.626;9.238;2022-07-22T04:03:23;9.83;;;8.93;;
735;SDS011;352;48.626;9.238;2022-07-22T04:05:50;10.00;;;9.10;;
735;SDS011;352;48.626;9.238;2022-07-22T04:08:17;11.17;;;10.37;;
735;SDS011;352;48.626;9.238;2022-07-22T04:10:44;12.53;;;11.60;;
735;SDS011;352;48.626;9.238;2022-07-22T04:13:13;10.07;;;9.30;;
735;SDS011;352;48.626;9.238;2022-07-22T04:15:40;10.20;;;8.20;;
735;SDS011;352;48.626;9.238;2022-07-22T04:18:07;8.83;;;8.03;;
735;SDS011;352;48.626;9.238;2022-07-22T04:20:34;11.50;;;9.93;;
735;SDS011;352;48.626;9.238;2022-07-22T04:23:01;10.33;;;9.13;;
735;SDS011;352;48.626;9.238;2022-07-22T04:25:27;11.53;;;10.33;;
735;SDS011;352;48.626;9.238;2022-07-22T04:27:54;9.17;;;8.27;;
735;SDS011;352;48.626;9.238;2022-07-22T04:30:23;11.30;;;10.40;;
735;SDS011;352;48.626;9.238;2022-07-22T04:32:50;10.83;;;9.40;;
735;SDS011;352;48.626;9.238;2022-07-22T04:35:17;11.17;;;10.23;;
735;SDS011;352;48.626;9.238;2022-07-22T04:37:44;10.20;;;9.30;;
735;SDS011;352;48.626;9.238;2022-07-22T04:40:11;9.77;;;9.07;;
735;SDS011;352;48.626;9.238;2022-07-22T04:42:38;9.87;;;9.07;;
735;SDS011;352;48.626;9.238;2022-07-22T04:45:05;10.30;;;9.40;;
735;SDS011;352;48.626;9.238;2022-07-22T04:47:33;11.03;;;10.13;;
735;SDS011;352;48.626;9.238;2022-07-22T04:50:00;12.80;;;11.50;;
735;SDS011;352;48.626;9.238;2022-07-22T04:52:27;10.27;;;9.50;;
735;SDS011;352;48.626;9.238;2022-07-22T04:54:54;9.53;;;8.77;;
735;SDS011;352;48.626;9.238;2022-07-22T04:57:23;10.00;;;9.10;;
735;SDS011;352;48.626;9.238;2022-07-22T04:59:50;9.60;;;8.80;;
735;SDS011;352;48.626;9.238;2022-07-22T05:02:17;11.50;;;10.47;;
735;SDS011;352;48.626;9.238;2022-07-22T05:04:45;10.80;;;9.90;;
735;SDS011;352;48.626;9.238;2022-07-22T05:07:12;12.03;;;10.77;;
735;SDS011;352;48.626;9.238;2022-07-22T05:09:39;9.90;;;8.90;;
735;SDS011;352;48.626;9.238;2022-07-22T05:12:06;9.23;;;8.20;;
735;SDS011;352;48.626;9.238;2022-07-22T05:14:33;10.17;;;9.17;;
735;SDS011;352;48.626;9.238;2022-07-22T05:16:59;10.30;;;9.40;;
735;SDS011;352;48.626;9.238;2022-07-22T05:19:26;9.93;;;9.23;;
735;SDS011;352;48.626;9.238;2022-07-22T05:21:54;8.13;;;7.53;;
735;SDS011;352;48.626;9.238;2022-07-22T05:24:21;9.17;;;8.47;;
735;SDS011;352;48.626;9.238;2022-07-22T05:26:48;9.80;;;8.90;;
735;SDS011;352;48.626;9.238;2022-07-22T05:29:15;10.30;;;9.40;;
735;SDS011;352;48.626;9.238;2022-07-22T05:31:42;8.97;;;8.23;;
735;SDS011;352;48.626;9.238;2022-07-22T05:34:09;9.10;;;8.43;;
735;SDS011;352;48.626;9.238;2022-07-22T05:36:36;10.00;;;9.30;;
735;SDS011;352;48.626;9.238;2022-07-22T05:39:04;17.27;;;15.70;;
735;SDS011;352;48.626;9.238;2022-07-22T05:41:31;11.20;;;10.30;;
735;SDS011;352;48.626;9.238;2022-07-22T05:43:58;9.97;;;9.30;;
735;SDS011;352;48.626;9.238;2022-07-22T05:46:25;10.43;;;9.50;;
735;SDS011;352;48.626;9.238;2022-07-22T05:48:52;8.93;;;8.33;;
735;SDS011;352;48.626;9.238;2022-07-22T05:51:20;9.20;;;8.60;;
735;SDS011;352;48.626;9.238;2022-07-22T05:53:47;14.50;;;13.40;;
735;SDS011;352;48.626;9.238;2022-07-22T05:56:15;18.10;;;16.87;;
735;SDS011;352;48.626;9.238;2022-07-22T05:58:42;12.60;;;11.80;;
735;SDS011;352;48.626;9.238;2022-07-22T06:01:10;10.90;;;10.10;;
735;SDS011;352;48.626;9.238;2022-07-22T06:03:37;10.80;;;9.80;;
735;SDS011;352;48.626;9.238;2022-07-22T06:06:04;9.17;;;8.57;;
735;SDS011;352;48.626;9.238;2022-07-22T06:08:33;10.90;;;9.90;;
735;SDS011;352;48.626;9.238;2022-07-22T06:11:00;60.30;;;55.00;;
735;SDS011;352;48.626;9.238;2022-07-22T06:13:28;10.40;;;9.27;;
735;SDS011;352;48.626;9.238;2022-07-22T06:15:55;14.70;;;13.53;;
735;SDS011;352;48.626;9.238;2022-07-22T06:18:22;14.83;;;13.37;;
735;SDS011;352;48.626;9.238;2022-07-22T06:20:49;19.43;;;18.20;;
735;SDS011;352;48.626;9.238;2022-07-22T06:23:16;21.10;;;19.13;;
735;SDS011;352;48.626;9.238;2022-07-22T06:25:43;61.90;;;59.20;;
735;SDS011;352;48.626;9.238;2022-07-22T06:28:10;24.50;;;22.17;;
735;SDS011;352;48.626;9.238;2022-07-22T06:30:39;19.00;;;17.40;;
735;SDS011;352;48.626;9.238;2022-07-22T06:33:07;28.23;;;25.53;;
735;SDS011;352;48.626;9.238;2022-07-22T06:35:34;119.53;;;114.97;;
735;SDS011;352;48.626;9.238;2022-07-22T06:38:01;148.23;;;143.10;;
735;SDS011;352;48.626;9.238;2022-07-22T06:40:28;330.80;;;315.47;;
735;SDS011;352;48.626;9.238;2022-07-22T06:42:55;36.47;;;33.50;;
735;SDS011;352;48.626;9.238;2022-07-22T06:45:22;34.27;;;31.03;;
735;SDS011;352;48.626;9.238;2022-07-22T06:47:51;31.43;;;28.60;;
735;SDS011;352;48.626;9.238;2022-07-22T06:50:17;42.70;;;39.97;;
735;SDS011;352;48.626;9.238;2022-07-22T06:52:44;51.47;;;48.10;;
735;SDS011;352;48.626;9.238;2022-07-22T06:55:12;27.87;;;25.53;;
735;SDS011;352;48.626;9.238;2022-07-22T06:57:40;17.67;;;16.07;;
735;SDS011;352;48.626;9.238;2022-07-22T07:00:07;18.83;;;16.97;;
735;SDS011;352;48.626;9.238;2022-07-22T07:02:35;15.93;;;14.53;;
735;SDS011;352;48.626;9.238;2022-07-22T07:05:03;15.33;;;14.00;;
735;SDS011;352;48.626;9.238;2022-07-22T07:07:31;17.57;;;15.97;;
735;SDS011;352;48.626;9.238;2022-07-22T07:09:58;20.43;;;18.50;;
735;SDS011;352;48.626;9.238;2022-07-22T07:12:25;16.83;;;15.23;;
735;SDS011;352;48.626;9.238;2022-07-22T07:14:52;15.20;;;13.80;;
735;SDS011;352;48.626;9.238;2022-07-22T07:17:19;16.67;;;15.17;;
735;SDS011;352;48.626;9.238;2022-07-22T07:19:47;15.17;;;13.90;;
735;SDS011;352;48.626;9.238;2022-07-22T07:22:15;14.60;;;13.37;;
735;SDS011;352;48.626;9.238;2022-07-22T07:24:42;15.63;;;14.33;;
735;SDS011;352;48.626;9.238;2022-07-22T07:27:08;15.20;;;13.77;;
735;SDS011;352;48.626;9.238;2022-07-22T07:29:36;16.73;;;14.33;;
735;SDS011;352;48.626;9.238;2022-07-22T07:32:03;15.57;;;14.17;;
735;SDS011;352;48.626;9.238;2022-07-22T07:34:30;14.70;;;13.40;;
735;SDS011;352;48.626;9.238;2022-07-22T07:36:57;14.53;;;13.33;;
735;SDS011;352;48.626;9.238;2022-07-22T07:39:25;13.13;;;11.93;;
735;SDS011;352;48.626;9.238;2022-07-22T07:41:52;13.87;;;12.67;;
735;SDS011;352;48.626;9.238;2022-07-22T07:44:19;14.33;;;13.03;;
735;SDS011;352;48.626;9.238;2022-07-22T07:46:45;13.13;;;12.03;;
735;SDS011;352;48.626;9.238;2022-07-22T07:49:13;13.47;;;12.43;;
735;SDS011;352;48.626;9.238;2022-07-22T07:51:39;12.73;;;11.73;;
735;SDS011;352;48.626;9.238;2022-07-22T07:54:06;13.80;;;12.50;;
735;SDS011;352;48.626;9.238;2022-07-22T07:56:34;13.03;;;11.80;;
735;SDS011;352;48.626;9.238;2022-07-22T07:59:03;13.03;;;11.83;;
735;SDS011;352;48.626;9.238;2022-07-22T08:01:30;12.03;;;10.80;;
735;SDS011;352;48.626;9.238;2022-07-22T08:03:57;12.30;;;11.30;;
735;SDS011;352;48.626;9.238;2022-07-22T08:06:24;12.73;;;11.63;;
735;SDS011;352;48.626;9.238;2022-07-22T08:08:51;11.70;;;10.50;;
735;SDS011;352;48.626;9.238;2022-07-22T08:11:18;12.50;;;11.27;;
735;SDS011;352;48.626;9.238;2022-07-22T08:13:46;11.50;;;10.50;;
735;SDS011;352;48.626;9.238;2022-07-22T08:16:13;12.10;;;11.00;;
735;SDS011;352;48.626;9.238;2022-07-22T08:18:40;11.63;;;10.53;;
735;SDS011;352;48.626;9.238;2022-07-22T08:21:07;13.13;;;12.03;;
735;SDS011;352;48.626;9.238;2022-07-22T08:23:34;15.00;;;11.60;;
735;SDS011;352;48.626;9.238;2022-07-22T08:26:00;12.77;;;11.67;;
735;SDS011;352;48.626;9.238;2022-07-22T08:28:27;10.83;;;10.00;;
735;SDS011;352;48.626;9.238;2022-07-22T08:30:56;11.30;;;10.30;;
735;SDS011;352;48.626;9.238;2022-07-22T08:33:22;11.30;;;10.20;;
735;SDS011;352;48.626;9.238;2022-07-22T08:35:49;13.90;;;12.60;;
735;SDS011;352;48.626;9.238;2022-07-22T08:38:16;10.93;;;10.03;;
735;SDS011;352;48.626;9.238;2022-07-22T08:40:43;11.57;;;10.67;;
735;SDS011;352;48.626;9.238;2022-07-22T08:43:10;11.20;;;10.30;;
735;SDS011;352;48.626;9.238;2022-07-22T08:45:39;9.90;;;9.20;;
735;SDS011;352;48.626;9.238;2022-07-22T08:48:08;12.37;;;11.20;;
735;SDS011;352;48.626;9.238;2022-07-22T08:50:35;11.07;;;10.27;;
735;SDS011;352;48.626;9.238;2022-07-22T08:53:02;11.17;;;10.23;;
735;SDS011;352;48.626;9.238;2022-07-22T08:55:29;11.27;;;9.93;;
735;SDS011;352;48.626;9.238;2022-07-22T08:57:56;10.30;;;9.40;;
735;SDS011;352;48.626;9.238;2022-07-22T09:00:23;10.60;;;9.70;;
735;SDS011;352;48.626;9.238;2022-07-22T09:02:49;12.40;;;11.23;;
735;SDS011;352;48.626;9.238;2022-07-22T09:05:17;14.50;;;13.30;;
735;SDS011;352;48.626;9.238;2022-07-22T09:07:44;10.33;;;9.53;;
735;SDS011;352;48.626;9.238;2022-07-22T09:10:13;11.70;;;10.80;;
735;SDS011;352;48.626;9.238;2022-07-22T09:12:51;14.40;;;13.30;;
735;SDS011;352;48.626;9.238;2022-07-22T09:15:27;10.80;;;9.97;;
735;SDS011;352;48.626;9.238;2022-07-22T09:17:56;16.50;;;14.97;;
735;SDS011;352;48.626;9.238;2022-07-22T09:20:25;20.07;;;18.60;;
735;SDS011;352;48.626;9.238;2022-07-22T09:22:53;9.70;;;8.70;;
735;SDS011;352;48.626;9.238;2022-07-22T09:25:22;15.80;;;14.60;;
735;SDS011;352;48.626;9.238;2022-07-22T09:27:52;10.93;;;10.13;;
735;SDS011;352;48.626;9.238;2022-07-22T09:30:22;9.77;;;9.00;;
735;SDS011;352;48.626;9.238;2022-07-22T09:32:54;11.60;;;10.60;;
735;SDS011;352;48.626;9.238;2022-07-22T09:35:21;9.17;;;8.47;;
735;SDS011;352;48.626;9.238;2022-07-22T09:37:52;11.03;;;10.13;;
735;SDS011;352;48.626;9.238;2022-07-22T09:40:21;9.73;;;9.03;;
735;SDS011;352;48.626;9.238;2022-07-22T09:42:49;9.77;;;8.97;;
735;SDS011;352;48.626;9.238;2022-07-22T09:45:17;9.30;;;8.50;;
735;SDS011;352;48.626;9.238;2022-07-22T09:47:45;10.30;;;9.40;;
735;SDS011;352;48.626;9.238;2022-07-22T09:50:14;9.70;;;8.87;;
735;SDS011;352;48.626;9.238;2022-07-22T09:52:42;9.00;;;8.40;;
735;SDS011;352;48.626;9.238;2022-07-22T09:55:10;8.87;;;8.13;;
735;SDS011;352;48.626;9.238;2022-07-22T09:57:39;8.70;;;8.00;;
735;SDS011;352;48.626;9.238;2022-07-22T10:00:06;8.80;;;8.10;;
735;SDS011;352;48.626;9.238;2022-07-22T10:02:35;9.00;;;8.40;;
735;SDS011;352;48.626;9.238;2022-07-22T10:05:06;9.40;;;8.70;;
735;SDS011;352;48.626;9.238;2022-07-22T10:07:36;9.63;;;8.93;;
735;SDS011;352;48.626;9.238;2022-07-22T10:10:05;9.70;;;9.00;;
735;SDS011;352;48.626;9.238;2022-07-22T10:12:36;9.43;;;8.73;;
735;SDS011;352;48.626;9.238;2022-07-22T10:15:03;12.03;;;11.13;;
735;SDS011;352;48.626;9.238;2022-07-22T10:17:33;10.30;;;9.43;;
735;SDS011;352;48.626;9.238;2022-07-22T10:20:01;14.00;;;12.80;;
735;SDS011;352;48.626;9.238;2022-07-22T10:25:17;9.60;;;8.80;;
735;SDS011;352;48.626;9.238;2022-07-22T10:27:49;14.33;;;13.00;;
735;SDS011;352;48.626;9.238;2022-07-22T10:30:17;8.43;;;7.87;;
735;SDS011;352;48.626;9.238;2022-07-22T10:32:45;9.30;;;8.40;;
735;SDS011;352;48.626;9.238;2022-07-22T10:35:32;10.40;;;9.70;;
735;SDS011;352;48.626;9.238;2022-07-22T10:38:01;9.53;;;8.83;;
735;SDS011;352;48.626;9.238;2022-07-22T10:40:30;11.27;;;10.37;;
735;SDS011;352;48.626;9.238;2022-07-22T10:43:11;10.20;;;9.57;;
735;SDS011;352;48.626;9.238;2022-07-22T10:45:40;10.67;;;9.57;;
735;SDS011;352;48.626;9.238;2022-07-22T10:48:15;11.20;;;10.40;;
735;SDS011;352;48.626;9.238;2022-07-22T10:50:54;10.60;;;9.60;;
735;SDS011;352;48.626;9.238;2022-07-22T10:53:44;12.37;;;11.37;;
735;SDS011;352;48.626;9.238;2022-07-22T10:56:13;12.17;;;11.20;;
735;SDS011;352;48.626;9.238;2022-07-22T10:58:54;10.10;;;9.40;;
735;SDS011;352;48.626;9.238;2022-07-22T11:01:23;11.13;;;10.33;;
735;SDS011;352;48.626;9.238;2022-07-22T11:03:52;9.23;;;8.63;;
735;SDS011;352;48.626;9.238;2022-07-22T11:06:24;12.37;;;11.00;;
735;SDS011;352;48.626;9.238;2022-07-22T11:08:53;9.83;;;8.83;;
735;SDS011;352;48.626;9.238;2022-07-22T11:11:31;13.73;;;12.53;;
735;SDS011;352;48.626;9.238;2022-07-22T11:14:11;15.77;;;14.63;;
735;SDS011;352;48.626;9.238;2022-07-22T11:16:43;8.63;;;8.03;;
735;SDS011;352;48.626;9.238;2022-07-22T11:19:10;7.83;;;7.33;;
735;SDS011;352;48.626;9.238;2022-07-22T11:25:12;9.73;;;8.93;;
735;SDS011;352;48.626;9.238;2022-07-22T11:31:59;13.03;;;10.47;;
735;SDS011;352;48.626;9.238;2022-07-22T11:34:27;8.57;;;7.97;;
735;SDS011;352;48.626;9.238;2022-07-22T11:36:54;8.93;;;8.33;;
735;SDS011;352;48.626;9.238;2022-07-22T11:39:23;9.20;;;8.50;;
735;SDS011;352;48.626;9.238;2022-07-22T11:41:51;10.97;;;8.60;;
735;SDS011;352;48.626;9.238;2022-07-22T11:44:19;9.17;;;8.50;;
735;SDS011;352;48.626;9.238;2022-07-22T11:46:47;9.17;;;8.47;;
735;SDS011;352;48.626;9.238;2022-07-22T11:49:17;9.63;;;8.80;;
735;SDS011;352;48.626;9.238;2022-07-22T11:51:46;8.50;;;7.90;;
735;SDS011;352;48.626;9.238;2022-07-22T11:54:13;8.80;;;8.20;;
735;SDS011;352;48.626;9.238;2022-07-22T11:56:41;8.83;;;8.13;;
735;SDS011;352;48.626;9.238;2022-07-22T11:59:11;10.43;;;8.93;;
735;SDS011;352;48.626;9.238;2022-07-22T12:01:38;13.97;;;9.07;;
735;SDS011;352;48.626;9.238;2022-07-22T12:04:07;9.70;;;8.97;;
735;SDS011;352;48.626;9.238;2022-07-22T12:06:37;8.73;;;8.03;;
735;SDS011;352;48.626;9.238;2022-07-22T12:09:07;9.07;;;8.40;;
735;SDS011;352;48.626;9.238;2022-07-22T12:11:35;8.80;;;8.20;;
735;SDS011;352;48.626;9.238;2022-07-22T12:14:05;8.63;;;8.03;;
735;SDS011;352;48.626;9.238;2022-07-22T12:16:33;9.37;;;8.67;;
735;SDS011;352;48.626;9.238;2022-07-22T12:19:01;9.47;;;8.60;;
735;SDS011;352;48.626;9.238;2022-07-22T12:21:30;9.30;;;8.50;;
735;SDS011;352;48.626;9.238;2022-07-22T12:24:01;9.03;;;8.43;;
735;SDS011;352;48.626;9.238;2022-07-22T12:26:39;9.43;;;8.67;;
735;SDS011;352;48.626;9.238;2022-07-22T12:29:15;8.97;;;8.27;;
735;SDS011;352;48.626;9.238;2022-07-22T12:31:43;9.00;;;8.40;;
735;SDS011;352;48.626;9.238;2022-07-22T12:34:11;9.30;;;8.57;;
735;SDS011;352;48.626;9.238;2022-07-22T12:36:38;9.80;;;9.07;;
735;SDS011;352;48.626;9.238;2022-07-22T12:39:13;9.23;;;8.30;;
735;SDS011;352;48.626;9.238;2022-07-22T12:41:45;8.53;;;7.83;;
735;SDS011;352;48.626;9.238;2022-07-22T12:44:17;9.20;;;8.47;;
735;SDS011;352;48.626;9.238;2022-07-22T12:46:46;8.47;;;7.87;;
735;SDS011;352;48.626;9.238;2022-07-22T12:49:15;8.67;;;8.07;;
735;SDS011;352;48.626;9.238;2022-07-22T12:54:36;8.33;;;7.63;;
735;SDS011;352;48.626;9.238;2022-07-22T12:57:04;9.53;;;8.83;;
735;SDS011;352;48.626;9.238;2022-07-22T12:59:32;8.43;;;7.83;;
735;SDS011;352;48.626;9.238;2022-07-22T13:01:59;9.43;;;8.53;;
735;SDS011;352;48.626;9.238;2022-07-22T13:04:25;9.50;;;8.70;;
735;SDS011;352;48.626;9.238;2022-07-22T13:06:52;9.03;;;8.23;;
735;SDS011;352;48.626;9.238;2022-07-22T13:09:19;9.17;;;8.40;;
735;SDS011;352;48.626;9.238;2022-07-22T13:11:48;9.63;;;8.70;;
735;SDS011;352;48.626;9.238;2022-07-22T13:14:15;8.30;;;7.73;;
735;SDS011;352;48.626;9.238;2022-07-22T13:16:42;7.70;;;7.10;;
735;SDS011;352;48.626;9.238;2022-07-22T13:19:09;8.73;;;8.03;;
735;SDS011;352;48.626;9.238;2022-07-22T13:21:36;9.47;;;8.67;;
735;SDS011;352;48.626;9.238;2022-07-22T13:24:03;8.70;;;8.00;;
735;SDS011;352;48.626;9.238;2022-07-22T13:26:30;10.37;;;9.13;;
735;SDS011;352;48.626;9.238;2022-07-22T13:29:13;9.30;;;8.40;;
735;SDS011;352;48.626;9.238;2022-07-22T13:31:58;9.23;;;8.43;;
735;SDS011;352;48.626;9.238;2022-07-22T13:34:45;8.33;;;7.73;;
735;SDS011;352;48.626;9.238;2022-07-22T13:37:16;9.20;;;8.40;;
735;SDS011;352;48.626;9.238;2022-07-22T13:39:44;9.73;;;8.90;;
735;SDS011;352;48.626;9.238;2022-07-22T13:42:15;9.03;;;8.33;;
735;SDS011;352;48.626;9.238;2022-07-22T13:44:52;8.60;;;8.00;;
735;SDS011;352;48.626;9.238;2022-07-22T13:47:21;9.57;;;8.87;;
735;SDS011;352;48.626;9.238;2022-07-22T13:49:49;8.67;;;8.07;;
735;SDS011;352;48.626;9.238;2022-07-22T13:52:16;9.27;;;8.57;;
735;SDS011;352;48.626;9.238;2022-07-22T13:54:49;8.53;;;7.83;;
735;SDS011;352;48.626;9.238;2022-07-22T13:57:16;9.20;;;8.50;;
735;SDS011;352;48.626;9.238;2022-07-22T13:59:44;9.73;;;8.73;;
735;SDS011;352;48.626;9.238;2022-07-22T14:02:13;10.23;;;8.63;;
735;SDS011;352;48.626;9.238;2022-07-22T14:04:40;8.80;;;8.20;;
735;SDS011;352;48.626;9.238;2022-07-22T14:07:07;8.87;;;8.27;;
735;SDS011;352;48.626;9.238;2022-07-22T14:09:34;9.00;;;8.13;;
735;SDS011;352;48.626;9.238;2022-07-22T14:12:01;8.30;;;7.70;;
735;SDS011;352;48.626;9.238;2022-07-22T14:14:28;9.27;;;8.40;;
735;SDS011;352;48.626;9.238;2022-07-22T14:16:55;8.77;;;7.97;;
735;SDS011;352;48.626;9.238;2022-07-22T14:19:24;8.93;;;8.10;;
735;SDS011;352;48.626;9.238;2022-07-22T14:21:50;8.50;;;7.70;;
735;SDS011;352;48.626;9.238;2022-07-22T14:24:17;8.87;;;8.07;;
735;SDS011;352;48.626;9.238;2022-07-22T14:26:45;8.80;;;8.10;;
735;SDS011;352;48.626;9.238;2022-07-22T14:29:12;7.97;;;7.27;;
735;SDS011;352;48.626;9.238;2022-07-22T14:31:39;9.03;;;8.23;;
735;SDS011;352;48.626;9.238;2022-07-22T14:34:06;8.80;;;8.10;;
735;SDS011;352;48.626;9.238;2022-07-22T14:36:34;9.13;;;8.37;;
735;SDS011;352;48.626;9.238;2022-07-22T14:39:01;8.90;;;8.20;;
735;SDS011;352;48.626;9.238;2022-07-22T14:41:30;10.33;;;9.53;;
735;SDS011;352;48.626;9.238;2022-07-22T14:43:58;8.47;;;7.87;;
735;SDS011;352;48.626;9.238;2022-07-22T14:46:25;8.90;;;8.00;;
735;SDS011;352;48.626;9.238;2022-07-22T14:48:51;9.93;;;9.13;;
735;SDS011;352;48.626;9.238;2022-07-22T14:51:18;11.83;;;10.63;;
735;SDS011;352;48.626;9.238;2022-07-22T14:53:48;8.40;;;7.80;;
735;SDS011;352;48.626;9.238;2022-07-22T14:56:15;10.33;;;9.53;;
735;SDS011;352;48.626;9.238;2022-07-22T14:58:42;8.83;;;8.23;;
735;SDS011;352;48.626;9.238;2022-07-22T15:01:09;8.50;;;7.90;;
735;SDS011;352;48.626;9.238;2022-07-22T15:03:37;9.43;;;8.67;;
735;SDS011;352;48.626;9.238;2022-07-22T15:06:04;8.27;;;7.67;;
735;SDS011;352;48.626;9.238;2022-07-22T15:08:31;9.70;;;9.00;;
735;SDS011;352;48.626;9.238;2022-07-22T15:11:01;8.73;;;8.13;;
735;SDS011;352;48.626;9.238;2022-07-22T15:13:28;8.40;;;7.70;;
735;SDS011;352;48.626;9.238;2022-07-22T15:15:55;8.87;;;8.17;;
735;SDS011;352;48.626;9.238;2022-07-22T15:20:26;618.75;;;573.67;;
735;SDS011;352;48.626;9.238;2022-07-22T15:22:53;470.60;;;427.93;;
735;SDS011;352;48.626;9.238;2022-07-22T15:25:20;451.10;;;409.13;;
735;SDS011;352;48.626;9.238;2022-07-22T15:27:48;448.07;;;405.83;;
735;SDS011;352;48.626;9.238;2022-07-22T15:30:15;448.23;;;405.93;;
735;SDS011;352;48.626;9.238;2022-07-22T15:32:49;462.00;;;419.13;;
735;SDS011;352;48.626;9.238;2022-07-22T15:35:16;462.83;;;419.87;;
735;SDS011;352;48.626;9.238;2022-07-22T15:37:46;464.70;;;421.43;;
735;SDS011;352;48.626;9.238;2022-07-22T15:43:30;426.77;;;385.43;;
735;SDS011;352;48.626;9.238;2022-07-22T15:45:57;426.03;;;384.33;;
735;SDS011;352;48.626;9.238;2022-07-22T15:48:24;417.20;;;375.97;;
735;SDS011;352;48.626;9.238;2022-07-22T15:50:51;418.17;;;376.80;;
735;SDS011;352;48.626;9.238;2022-07-22T15:53:19;424.60;;;383.07;;
735;SDS011;352;48.626;9.238;2022-07-22T15:55:47;412.50;;;371.43;;
735;SDS011;352;48.626;9.238;2022-07-22T15:58:14;415.77;;;374.50;;